sensor_id;sensor_type;location;lat;lon;timestamp;temperature;humidity
5639;DHT22;2841;44.526;11.360;2023-04-10T00:00:08;11.90;50.30
5639;DHT22;2841;44.526;11.360;2023-04-10T00:02:36;11.90;50.40
5639;DHT22;2841;44.526;11.360;2023-04-10T00:05:02;11.80;50.30
5639;DHT22;2841;44.526;11.360;2023-04-10T00:07:29;11.90;50.50
5639;DHT22;2841;44.526;11.360;2023-04-10T00:09:56;11.80;50.40
5639;DHT22;2841;44.526;11.360;2023-04-10T00:12:23;11.80;50.50
5639;DHT22;2841;44.526;11.360;2023-04-10T00:14:50;11.80;50.60
5639;DHT22;2841;44.526;11.360;2023-04-10T00:17:18;11.80;50.70
5639;DHT22;2841;44.526;11.360;2023-04-10T00:19:45;11.80;50.70
5639;DHT22;2841;44.526;11.360;2023-04-10T00:22:12;11.70;50.70
5639;DHT22;2841;44.526;11.360;2023-04-10T00:24:39;11.70;50.80
5639;DHT22;2841;44.526;11.360;2023-04-10T00:27:05;11.70;50.90
5639;DHT22;2841;44.526;11.360;2023-04-10T00:29:32;11.70;50.90
5639;DHT22;2841;44.526;11.360;2023-04-10T00:31:59;11.70;51.00
5639;DHT22;2841;44.526;11.360;2023-04-10T00:34:27;11.70;51.10
5639;DHT22;2841;44.526;11.360;2023-04-10T00:36:53;11.70;51.10
5639;DHT22;2841;44.526;11.360;2023-04-10T00:39:21;11.60;51.10
5639;DHT22;2841;44.526;11.360;2023-04-10T00:41:47;11.60;51.20
5639;DHT22;2841;44.526;11.360;2023-04-10T00:44:14;11.60;51.30
5639;DHT22;2841;44.526;11.360;2023-04-10T00:46:41;11.50;51.30
5639;DHT22;2841;44.526;11.360;2023-04-10T00:49:07;11.50;51.40
5639;DHT22;2841;44.526;11.360;2023-04-10T00:51:36;11.50;51.60
5639;DHT22;2841;44.526;11.360;2023-04-10T00:54:03;11.50;51.60
5639;DHT22;2841;44.526;11.360;2023-04-10T00:56:30;11.40;51.60
5639;DHT22;2841;44.526;11.360;2023-04-10T00:58:57;11.40;51.70
5639;DHT22;2841;44.526;11.360;2023-04-10T01:01:24;11.40;51.70
5639;DHT22;2841;44.526;11.360;2023-04-10T01:03:51;11.40;51.80
5639;DHT22;2841;44.526;11.360;2023-04-10T01:06:21;11.40;51.90
5639;DHT22;2841;44.526;11.360;2023-04-10T01:08:54;11.30;51.90
5639;DHT22;2841;44.526;11.360;2023-04-10T01:11:27;11.20;52.00
5639;DHT22;2841;44.526;11.360;2023-04-10T01:13:57;11.20;52.20
5639;DHT22;2841;44.526;11.360;2023-04-10T01:16:27;11.10;52.20
5639;DHT22;2841;44.526;11.360;2023-04-10T01:18:58;11.10;52.80
5639;DHT22;2841;44.526;11.360;2023-04-10T01:21:27;11.10;52.30
5639;DHT22;2841;44.526;11.360;2023-04-10T01:24:03;11.10;52.40
5639;DHT22;2841;44.526;11.360;2023-04-10T01:26:38;11.00;52.40
5639;DHT22;2841;44.526;11.360;2023-04-10T01:29:07;11.00;52.40
5639;DHT22;2841;44.526;11.360;2023-04-10T01:31:35;11.00;52.50
5639;DHT22;2841;44.526;11.360;2023-04-10T01:34:04;11.00;52.60
5639;DHT22;2841;44.526;11.360;2023-04-10T01:36:33;10.90;52.60
5639;DHT22;2841;44.526;11.360;2023-04-10T01:39:01;10.90;52.70
5639;DHT22;2841;44.526;11.360;2023-04-10T01:41:29;10.90;52.80
5639;DHT22;2841;44.526;11.360;2023-04-10T01:43:56;10.90;52.90
5639;DHT22;2841;44.526;11.360;2023-04-10T01:46:25;10.80;52.90
5639;DHT22;2841;44.526;11.360;2023-04-10T01:48:53;10.80;53.00
5639;DHT22;2841;44.526;11.360;2023-04-10T01:51:20;10.80;53.10
5639;DHT22;2841;44.526;11.360;2023-04-10T01:53:47;10.80;53.20
5639;DHT22;2841;44.526;11.360;2023-04-10T01:56:15;10.70;53.20
5639;DHT22;2841;44.526;11.360;2023-04-10T01:58:42;10.70;53.30
5639;DHT22;2841;44.526;11.360;2023-04-10T02:01:09;10.70;53.40
5639;DHT22;2841;44.526;11.360;2023-04-10T02:03:37;10.60;53.40
5639;DHT22;2841;44.526;11.360;2023-04-10T02:06:08;10.60;53.50
5639;DHT22;2841;44.526;11.360;2023-04-10T02:08:38;10.50;53.50
5639;DHT22;2841;44.526;11.360;2023-04-10T02:11:16;10.50;53.60
5639;DHT22;2841;44.526;11.360;2023-04-10T02:13:44;10.30;53.60
5639;DHT22;2841;44.526;11.360;2023-04-10T02:16:11;10.30;53.80
5639;DHT22;2841;44.526;11.360;2023-04-10T02:18:42;10.20;53.90
5639;DHT22;2841;44.526;11.360;2023-04-10T02:21:10;10.10;54.00
5639;DHT22;2841;44.526;11.360;2023-04-10T02:23:37;10.00;54.10
5639;DHT22;2841;44.526;11.360;2023-04-10T02:26:05;9.90;55.10
5639;DHT22;2841;44.526;11.360;2023-04-10T02:28:31;9.80;55.20
5639;DHT22;2841;44.526;11.360;2023-04-10T02:30:58;9.80;55.30
5639;DHT22;2841;44.526;11.360;2023-04-10T02:33:25;9.70;55.40
5639;DHT22;2841;44.526;11.360;2023-04-10T02:35:53;9.70;55.40
5639;DHT22;2841;44.526;11.360;2023-04-10T02:38:20;9.60;55.40
5639;DHT22;2841;44.526;11.360;2023-04-10T02:40:46;9.60;55.60
5639;DHT22;2841;44.526;11.360;2023-04-10T02:43:14;9.50;55.60
5639;DHT22;2841;44.526;11.360;2023-04-10T02:45:41;9.50;55.60
5639;DHT22;2841;44.526;11.360;2023-04-10T02:48:08;9.40;55.70
5639;DHT22;2841;44.526;11.360;2023-04-10T02:50:35;9.30;55.80
5639;DHT22;2841;44.526;11.360;2023-04-10T02:53:03;9.30;55.90
5639;DHT22;2841;44.526;11.360;2023-04-10T02:55:30;9.30;56.00
5639;DHT22;2841;44.526;11.360;2023-04-10T02:57:56;9.30;56.10
5639;DHT22;2841;44.526;11.360;2023-04-10T03:00:23;9.30;56.10
5639;DHT22;2841;44.526;11.360;2023-04-10T03:02:50;9.30;56.20
5639;DHT22;2841;44.526;11.360;2023-04-10T03:05:17;9.30;56.20
5639;DHT22;2841;44.526;11.360;2023-04-10T03:07:44;9.40;56.30
5639;DHT22;2841;44.526;11.360;2023-04-10T03:10:12;9.50;56.40
5639;DHT22;2841;44.526;11.360;2023-04-10T03:12:39;9.50;56.30
5639;DHT22;2841;44.526;11.360;2023-04-10T03:15:06;9.60;56.30
5639;DHT22;2841;44.526;11.360;2023-04-10T03:17:33;9.70;56.40
5639;DHT22;2841;44.526;11.360;2023-04-10T03:20:00;9.70;56.40
5639;DHT22;2841;44.526;11.360;2023-04-10T03:22:26;9.80;56.40
5639;DHT22;2841;44.526;11.360;2023-04-10T03:24:56;9.90;56.40
5639;DHT22;2841;44.526;11.360;2023-04-10T03:27:24;9.90;56.40
5639;DHT22;2841;44.526;11.360;2023-04-10T03:29:51;10.00;55.60
5639;DHT22;2841;44.526;11.360;2023-04-10T03:32:18;10.00;55.50
5639;DHT22;2841;44.526;11.360;2023-04-10T03:34:44;10.00;55.60
5639;DHT22;2841;44.526;11.360;2023-04-10T03:37:11;10.00;55.60
5639;DHT22;2841;44.526;11.360;2023-04-10T03:39:38;10.10;55.70
5639;DHT22;2841;44.526;11.360;2023-04-10T03:42:04;10.00;55.70
5639;DHT22;2841;44.526;11.360;2023-04-10T03:44:32;10.00;55.80
5639;DHT22;2841;44.526;11.360;2023-04-10T03:47:00;10.00;55.80
5639;DHT22;2841;44.526;11.360;2023-04-10T03:49:26;10.00;55.90
5639;DHT22;2841;44.526;11.360;2023-04-10T03:51:53;10.00;56.00
5639;DHT22;2841;44.526;11.360;2023-04-10T03:54:20;10.00;56.10
5639;DHT22;2841;44.526;11.360;2023-04-10T03:56:46;9.90;57.00
5639;DHT22;2841;44.526;11.360;2023-04-10T03:59:13;9.90;57.10
5639;DHT22;2841;44.526;11.360;2023-04-10T04:01:41;9.90;57.20
5639;DHT22;2841;44.526;11.360;2023-04-10T04:04:08;9.90;57.30
5639;DHT22;2841;44.526;11.360;2023-04-10T04:06:35;9.80;57.30
5639;DHT22;2841;44.526;11.360;2023-04-10T04:09:01;9.80;57.40
5639;DHT22;2841;44.526;11.360;2023-04-10T04:11:28;9.80;57.40
5639;DHT22;2841;44.526;11.360;2023-04-10T04:13:55;9.70;57.40
5639;DHT22;2841;44.526;11.360;2023-04-10T04:16:22;9.70;57.60
5639;DHT22;2841;44.526;11.360;2023-04-10T04:18:50;9.70;57.70
5639;DHT22;2841;44.526;11.360;2023-04-10T04:21:17;9.60;57.70
5639;DHT22;2841;44.526;11.360;2023-04-10T04:23:43;9.60;57.70
5639;DHT22;2841;44.526;11.360;2023-04-10T04:26:10;9.60;57.80
5639;DHT22;2841;44.526;11.360;2023-04-10T04:28:37;9.60;57.90
5639;DHT22;2841;44.526;11.360;2023-04-10T04:31:04;9.50;58.40
5639;DHT22;2841;44.526;11.360;2023-04-10T04:33:31;9.50;58.00
5639;DHT22;2841;44.526;11.360;2023-04-10T04:35:59;9.40;58.00
5639;DHT22;2841;44.526;11.360;2023-04-10T04:38:26;9.40;58.10
5639;DHT22;2841;44.526;11.360;2023-04-10T04:40:52;9.30;58.10
5639;DHT22;2841;44.526;11.360;2023-04-10T04:43:19;9.30;58.20
5639;DHT22;2841;44.526;11.360;2023-04-10T04:45:46;9.30;58.30
5639;DHT22;2841;44.526;11.360;2023-04-10T04:48:12;9.30;58.50
5639;DHT22;2841;44.526;11.360;2023-04-10T04:50:39;9.30;58.50
5639;DHT22;2841;44.526;11.360;2023-04-10T04:53:07;9.30;58.40
5639;DHT22;2841;44.526;11.360;2023-04-10T04:55:34;9.30;58.50
5639;DHT22;2841;44.526;11.360;2023-04-10T04:58:01;9.30;58.50
5639;DHT22;2841;44.526;11.360;2023-04-10T05:00:28;9.30;58.50
5639;DHT22;2841;44.526;11.360;2023-04-10T05:02:54;9.30;58.50
5639;DHT22;2841;44.526;11.360;2023-04-10T05:05:21;9.30;58.50
5639;DHT22;2841;44.526;11.360;2023-04-10T05:07:48;9.30;58.60
5639;DHT22;2841;44.526;11.360;2023-04-10T05:10:16;9.20;58.60
5639;DHT22;2841;44.526;11.360;2023-04-10T05:12:43;9.10;58.60
5639;DHT22;2841;44.526;11.360;2023-04-10T05:15:10;9.10;58.70
5639;DHT22;2841;44.526;11.360;2023-04-10T05:17:36;9.10;58.80
5639;DHT22;2841;44.526;11.360;2023-04-10T05:20:03;9.10;58.90
5639;DHT22;2841;44.526;11.360;2023-04-10T05:22:30;9.20;59.00
5639;DHT22;2841;44.526;11.360;2023-04-10T05:24:58;9.10;58.90
5639;DHT22;2841;44.526;11.360;2023-04-10T05:27:26;9.10;59.00
5639;DHT22;2841;44.526;11.360;2023-04-10T05:29:53;9.20;59.10
5639;DHT22;2841;44.526;11.360;2023-04-10T05:32:19;9.20;59.10
5639;DHT22;2841;44.526;11.360;2023-04-10T05:34:46;9.20;59.00
5639;DHT22;2841;44.526;11.360;2023-04-10T05:37:13;9.20;59.10
5639;DHT22;2841;44.526;11.360;2023-04-10T05:39:39;9.20;59.20
5639;DHT22;2841;44.526;11.360;2023-04-10T05:42:06;9.20;59.20
5639;DHT22;2841;44.526;11.360;2023-04-10T05:44:34;9.30;59.30
5639;DHT22;2841;44.526;11.360;2023-04-10T05:47:01;9.30;59.20
5639;DHT22;2841;44.526;11.360;2023-04-10T05:49:27;9.40;59.20
5639;DHT22;2841;44.526;11.360;2023-04-10T05:51:54;9.40;59.20
5639;DHT22;2841;44.526;11.360;2023-04-10T05:54:21;9.50;59.20
5639;DHT22;2841;44.526;11.360;2023-04-10T05:56:48;9.50;59.20
5639;DHT22;2841;44.526;11.360;2023-04-10T05:59:14;9.60;59.30
5639;DHT22;2841;44.526;11.360;2023-04-10T06:01:43;9.70;59.30
5639;DHT22;2841;44.526;11.360;2023-04-10T06:04:09;9.70;59.40
5639;DHT22;2841;44.526;11.360;2023-04-10T06:06:37;9.70;59.40
5639;DHT22;2841;44.526;11.360;2023-04-10T06:09:03;9.80;59.40
5639;DHT22;2841;44.526;11.360;2023-04-10T06:11:30;9.90;59.40
5639;DHT22;2841;44.526;11.360;2023-04-10T06:13:57;10.00;58.50
5639;DHT22;2841;44.526;11.360;2023-04-10T06:16:24;10.00;58.40
5639;DHT22;2841;44.526;11.360;2023-04-10T06:18:52;10.10;58.40
5639;DHT22;2841;44.526;11.360;2023-04-10T06:21:19;10.20;58.50
5639;DHT22;2841;44.526;11.360;2023-04-10T06:23:46;10.20;58.40
5639;DHT22;2841;44.526;11.360;2023-04-10T06:26:12;10.30;58.40
5639;DHT22;2841;44.526;11.360;2023-04-10T06:28:39;10.30;58.30
5639;DHT22;2841;44.526;11.360;2023-04-10T06:31:06;10.30;58.30
5639;DHT22;2841;44.526;11.360;2023-04-10T06:33:33;10.30;58.40
5639;DHT22;2841;44.526;11.360;2023-04-10T06:36:02;10.30;58.50
5639;DHT22;2841;44.526;11.360;2023-04-10T06:38:29;10.40;58.80
5639;DHT22;2841;44.526;11.360;2023-04-10T06:40:58;10.40;58.80
5639;DHT22;2841;44.526;11.360;2023-04-10T06:43:24;10.50;58.80
5639;DHT22;2841;44.526;11.360;2023-04-10T06:45:52;10.60;58.80
5639;DHT22;2841;44.526;11.360;2023-04-10T06:48:19;10.60;58.70
5639;DHT22;2841;44.526;11.360;2023-04-10T06:50:45;10.70;58.80
5639;DHT22;2841;44.526;11.360;2023-04-10T06:53:13;10.80;58.80
5639;DHT22;2841;44.526;11.360;2023-04-10T06:55:40;10.90;58.70
5639;DHT22;2841;44.526;11.360;2023-04-10T06:58:07;10.90;58.60
5639;DHT22;2841;44.526;11.360;2023-04-10T07:00:34;11.00;58.60
5639;DHT22;2841;44.526;11.360;2023-04-10T07:03:01;11.10;58.60
5639;DHT22;2841;44.526;11.360;2023-04-10T07:05:28;11.10;58.50
5639;DHT22;2841;44.526;11.360;2023-04-10T07:07:54;11.20;58.60
5639;DHT22;2841;44.526;11.360;2023-04-10T07:10:22;11.30;58.50
5639;DHT22;2841;44.526;11.360;2023-04-10T07:12:49;11.40;58.50
5639;DHT22;2841;44.526;11.360;2023-04-10T07:15:16;11.40;58.40
5639;DHT22;2841;44.526;11.360;2023-04-10T07:17:42;11.40;58.40
5639;DHT22;2841;44.526;11.360;2023-04-10T07:20:10;11.40;58.50
5639;DHT22;2841;44.526;11.360;2023-04-10T07:22:37;11.40;58.50
5639;DHT22;2841;44.526;11.360;2023-04-10T07:25:04;11.40;58.40
5639;DHT22;2841;44.526;11.360;2023-04-10T07:27:32;11.50;58.50
5639;DHT22;2841;44.526;11.360;2023-04-10T07:29:59;11.60;58.40
5639;DHT22;2841;44.526;11.360;2023-04-10T07:32:26;11.70;58.30
5639;DHT22;2841;44.526;11.360;2023-04-10T07:34:53;11.80;58.30
5639;DHT22;2841;44.526;11.360;2023-04-10T07:37:19;11.90;58.20
5639;DHT22;2841;44.526;11.360;2023-04-10T07:39:46;12.00;58.10
5639;DHT22;2841;44.526;11.360;2023-04-10T07:42:13;12.00;58.00
5639;DHT22;2841;44.526;11.360;2023-04-10T07:44:41;12.10;58.00
5639;DHT22;2841;44.526;11.360;2023-04-10T07:47:07;12.20;58.00
5639;DHT22;2841;44.526;11.360;2023-04-10T07:49:34;12.30;57.90
5639;DHT22;2841;44.526;11.360;2023-04-10T07:52:01;12.30;57.90
5639;DHT22;2841;44.526;11.360;2023-04-10T07:54:30;12.30;57.80
5639;DHT22;2841;44.526;11.360;2023-04-10T07:56:57;12.40;57.80
5639;DHT22;2841;44.526;11.360;2023-04-10T07:59:23;12.50;57.80
5639;DHT22;2841;44.526;11.360;2023-04-10T08:01:52;12.60;57.70
5639;DHT22;2841;44.526;11.360;2023-04-10T08:04:19;12.60;57.60
5639;DHT22;2841;44.526;11.360;2023-04-10T08:06:46;12.60;57.60
5639;DHT22;2841;44.526;11.360;2023-04-10T08:09:13;12.70;57.70
5639;DHT22;2841;44.526;11.360;2023-04-10T08:11:40;12.80;57.70
5639;DHT22;2841;44.526;11.360;2023-04-10T08:14:07;12.90;57.60
5639;DHT22;2841;44.526;11.360;2023-04-10T08:16:34;13.00;57.60
5639;DHT22;2841;44.526;11.360;2023-04-10T08:19:02;13.10;57.50
5639;DHT22;2841;44.526;11.360;2023-04-10T08:21:29;13.10;57.40
5639;DHT22;2841;44.526;11.360;2023-04-10T08:23:56;13.20;57.50
5639;DHT22;2841;44.526;11.360;2023-04-10T08:26:24;13.30;57.30
5639;DHT22;2841;44.526;11.360;2023-04-10T08:28:51;13.40;57.20
5639;DHT22;2841;44.526;11.360;2023-04-10T08:31:18;13.60;57.20
5639;DHT22;2841;44.526;11.360;2023-04-10T08:33:45;13.60;57.00
5639;DHT22;2841;44.526;11.360;2023-04-10T08:36:13;13.70;57.00
5639;DHT22;2841;44.526;11.360;2023-04-10T08:38:41;13.80;57.10
5639;DHT22;2841;44.526;11.360;2023-04-10T08:41:08;14.00;57.10
5639;DHT22;2841;44.526;11.360;2023-04-10T08:43:35;14.10;56.90
5639;DHT22;2841;44.526;11.360;2023-04-10T08:46:02;14.20;56.80
5639;DHT22;2841;44.526;11.360;2023-04-10T08:48:30;14.30;56.70
5639;DHT22;2841;44.526;11.360;2023-04-10T08:50:58;14.30;56.50
5639;DHT22;2841;44.526;11.360;2023-04-10T08:53:27;14.40;57.10
5639;DHT22;2841;44.526;11.360;2023-04-10T08:55:56;14.40;56.50
5639;DHT22;2841;44.526;11.360;2023-04-10T08:58:23;14.50;56.50
5639;DHT22;2841;44.526;11.360;2023-04-10T09:00:50;14.60;56.40
5639;DHT22;2841;44.526;11.360;2023-04-10T09:03:16;14.60;56.30
5639;DHT22;2841;44.526;11.360;2023-04-10T09:05:43;14.70;56.30
5639;DHT22;2841;44.526;11.360;2023-04-10T09:08:10;14.80;56.20
5639;DHT22;2841;44.526;11.360;2023-04-10T09:10:39;14.90;56.20
5639;DHT22;2841;44.526;11.360;2023-04-10T09:13:06;15.00;56.10
5639;DHT22;2841;44.526;11.360;2023-04-10T09:18:16;15.20;55.80
5639;DHT22;2841;44.526;11.360;2023-04-10T09:20:42;15.20;55.60
5639;DHT22;2841;44.526;11.360;2023-04-10T09:23:19;15.30;55.80
5639;DHT22;2841;44.526;11.360;2023-04-10T09:25:47;15.40;55.80
5639;DHT22;2841;44.526;11.360;2023-04-10T09:28:14;15.50;55.70
5639;DHT22;2841;44.526;11.360;2023-04-10T09:30:41;15.50;55.40
5639;DHT22;2841;44.526;11.360;2023-04-10T09:33:21;15.50;55.20
5639;DHT22;2841;44.526;11.360;2023-04-10T09:35:48;15.50;55.30
5639;DHT22;2841;44.526;11.360;2023-04-10T09:38:15;15.60;55.20
5639;DHT22;2841;44.526;11.360;2023-04-10T09:40:42;15.80;55.30
5639;DHT22;2841;44.526;11.360;2023-04-10T09:43:17;16.00;54.90
5639;DHT22;2841;44.526;11.360;2023-04-10T09:45:48;16.10;54.60
5639;DHT22;2841;44.526;11.360;2023-04-10T09:48:15;16.10;54.30
5639;DHT22;2841;44.526;11.360;2023-04-10T09:50:41;16.20;54.20
5639;DHT22;2841;44.526;11.360;2023-04-10T09:53:09;16.30;54.00
5639;DHT22;2841;44.526;11.360;2023-04-10T09:55:36;16.30;53.80
5639;DHT22;2841;44.526;11.360;2023-04-10T09:58:03;16.40;53.80
5639;DHT22;2841;44.526;11.360;2023-04-10T10:00:31;16.50;53.60
5639;DHT22;2841;44.526;11.360;2023-04-10T10:02:58;16.60;53.50
5639;DHT22;2841;44.526;11.360;2023-04-10T10:05:26;16.70;53.50
5639;DHT22;2841;44.526;11.360;2023-04-10T10:07:55;16.80;53.40
5639;DHT22;2841;44.526;11.360;2023-04-10T10:10:22;16.90;53.30
5639;DHT22;2841;44.526;11.360;2023-04-10T10:12:50;17.00;53.00
5639;DHT22;2841;44.526;11.360;2023-04-10T10:15:18;17.10;52.90
5639;DHT22;2841;44.526;11.360;2023-04-10T10:17:52;17.10;52.70
5639;DHT22;2841;44.526;11.360;2023-04-10T10:20:19;17.20;52.60
5639;DHT22;2841;44.526;11.360;2023-04-10T10:22:47;17.20;52.30
5639;DHT22;2841;44.526;11.360;2023-04-10T10:25:16;17.00;52.20
5639;DHT22;2841;44.526;11.360;2023-04-10T10:27:43;17.00;52.40
5639;DHT22;2841;44.526;11.360;2023-04-10T10:30:11;17.20;52.30
5639;DHT22;2841;44.526;11.360;2023-04-10T10:32:39;17.40;52.20
5639;DHT22;2841;44.526;11.360;2023-04-10T10:35:08;17.50;51.70
5639;DHT22;2841;44.526;11.360;2023-04-10T10:37:35;17.40;51.60
5639;DHT22;2841;44.526;11.360;2023-04-10T10:40:04;17.50;51.70
5639;DHT22;2841;44.526;11.360;2023-04-10T10:42:35;17.40;51.50
5639;DHT22;2841;44.526;11.360;2023-04-10T10:45:06;17.50;51.70
5639;DHT22;2841;44.526;11.360;2023-04-10T10:47:37;17.80;51.50
5639;DHT22;2841;44.526;11.360;2023-04-10T10:50:06;17.90;51.40
5639;DHT22;2841;44.526;11.360;2023-04-10T10:52:44;18.10;51.40
5639;DHT22;2841;44.526;11.360;2023-04-10T10:55:26;18.20;51.10
5639;DHT22;2841;44.526;11.360;2023-04-10T10:57:56;18.20;50.90
5639;DHT22;2841;44.526;11.360;2023-04-10T11:00:24;18.20;50.80
5639;DHT22;2841;44.526;11.360;2023-04-10T11:05:47;18.30;50.60
5639;DHT22;2841;44.526;11.360;2023-04-10T11:08:15;18.20;50.60
5639;DHT22;2841;44.526;11.360;2023-04-10T11:10:57;17.80;50.60
5639;DHT22;2841;44.526;11.360;2023-04-10T11:13:24;17.70;50.80
5639;DHT22;2841;44.526;11.360;2023-04-10T11:15:51;17.40;50.60
5639;DHT22;2841;44.526;11.360;2023-04-10T11:18:18;17.50;50.90
5639;DHT22;2841;44.526;11.360;2023-04-10T11:23:28;18.00;50.40
5639;DHT22;2841;44.526;11.360;2023-04-10T11:25:54;18.20;49.80
5639;DHT22;2841;44.526;11.360;2023-04-10T11:28:38;18.10;49.40
5639;DHT22;2841;44.526;11.360;2023-04-10T11:31:17;18.10;49.40
5639;DHT22;2841;44.526;11.360;2023-04-10T11:33:46;18.30;49.50
5639;DHT22;2841;44.526;11.360;2023-04-10T11:36:13;18.40;49.30
5639;DHT22;2841;44.526;11.360;2023-04-10T11:38:53;18.60;49.40
5639;DHT22;2841;44.526;11.360;2023-04-10T11:41:20;18.50;48.90
5639;DHT22;2841;44.526;11.360;2023-04-10T11:43:50;18.50;49.00
5639;DHT22;2841;44.526;11.360;2023-04-10T11:46:16;18.50;48.90
5639;DHT22;2841;44.526;11.360;2023-04-10T11:48:43;18.50;49.10
5639;DHT22;2841;44.526;11.360;2023-04-10T11:51:11;18.70;49.00
5639;DHT22;2841;44.526;11.360;2023-04-10T11:53:38;18.80;48.90
5639;DHT22;2841;44.526;11.360;2023-04-10T11:56:10;18.80;48.70
5639;DHT22;2841;44.526;11.360;2023-04-10T11:58:40;18.90;48.70
5639;DHT22;2841;44.526;11.360;2023-04-10T12:01:06;19.00;48.40
5639;DHT22;2841;44.526;11.360;2023-04-10T12:03:39;19.10;48.20
5639;DHT22;2841;44.526;11.360;2023-04-10T12:06:06;19.30;48.20
5639;DHT22;2841;44.526;11.360;2023-04-10T12:08:34;19.40;47.80
5639;DHT22;2841;44.526;11.360;2023-04-10T12:11:01;19.60;48.00
5639;DHT22;2841;44.526;11.360;2023-04-10T12:13:29;19.60;47.60
5639;DHT22;2841;44.526;11.360;2023-04-10T12:15:57;19.40;47.50
5639;DHT22;2841;44.526;11.360;2023-04-10T12:18:24;19.40;47.70
5639;DHT22;2841;44.526;11.360;2023-04-10T12:20:51;19.30;47.60
5639;DHT22;2841;44.526;11.360;2023-04-10T12:23:21;19.20;47.60
5639;DHT22;2841;44.526;11.360;2023-04-10T12:25:47;19.40;47.80
5639;DHT22;2841;44.526;11.360;2023-04-10T12:28:17;19.70;47.60
5639;DHT22;2841;44.526;11.360;2023-04-10T12:30:47;19.90;47.20
5639;DHT22;2841;44.526;11.360;2023-04-10T12:33:18;20.00;47.00
5639;DHT22;2841;44.526;11.360;2023-04-10T12:35:45;20.10;46.70
5639;DHT22;2841;44.526;11.360;2023-04-10T12:38:12;20.00;46.30
5639;DHT22;2841;44.526;11.360;2023-04-10T12:43:29;20.20;46.50
5639;DHT22;2841;44.526;11.360;2023-04-10T12:45:57;20.40;46.10
5639;DHT22;2841;44.526;11.360;2023-04-10T12:48:23;20.30;46.00
5639;DHT22;2841;44.526;11.360;2023-04-10T12:50:51;20.10;46.20
5639;DHT22;2841;44.526;11.360;2023-04-10T12:53:18;20.10;46.00
5639;DHT22;2841;44.526;11.360;2023-04-10T12:55:55;20.10;45.80
5639;DHT22;2841;44.526;11.360;2023-04-10T12:58:22;20.10;45.70
5639;DHT22;2841;44.526;11.360;2023-04-10T13:00:52;20.10;45.70
5639;DHT22;2841;44.526;11.360;2023-04-10T13:03:21;20.10;45.70
5639;DHT22;2841;44.526;11.360;2023-04-10T13:05:48;20.20;45.60
5639;DHT22;2841;44.526;11.360;2023-04-10T13:08:15;20.10;45.30
5639;DHT22;2841;44.526;11.360;2023-04-10T13:10:41;20.00;45.40
5639;DHT22;2841;44.526;11.360;2023-04-10T13:13:08;19.90;45.50
5639;DHT22;2841;44.526;11.360;2023-04-10T13:15:37;19.90;45.40
5639;DHT22;2841;44.526;11.360;2023-04-10T13:18:05;19.80;45.30
5639;DHT22;2841;44.526;11.360;2023-04-10T13:20:34;19.90;45.40
5639;DHT22;2841;44.526;11.360;2023-04-10T13:23:01;20.00;45.30
5639;DHT22;2841;44.526;11.360;2023-04-10T13:25:29;19.90;45.20
5639;DHT22;2841;44.526;11.360;2023-04-10T13:27:57;19.90;45.20
5639;DHT22;2841;44.526;11.360;2023-04-10T13:30:24;19.90;45.20
5639;DHT22;2841;44.526;11.360;2023-04-10T13:32:50;20.00;45.20
5639;DHT22;2841;44.526;11.360;2023-04-10T13:35:17;20.10;45.10
5639;DHT22;2841;44.526;11.360;2023-04-10T13:37:45;20.10;44.90
5639;DHT22;2841;44.526;11.360;2023-04-10T13:40:12;20.20;44.90
5639;DHT22;2841;44.526;11.360;2023-04-10T13:42:39;20.10;44.80
5639;DHT22;2841;44.526;11.360;2023-04-10T13:45:06;19.90;44.90
5639;DHT22;2841;44.526;11.360;2023-04-10T13:47:32;19.70;45.00
5639;DHT22;2841;44.526;11.360;2023-04-10T13:49:59;19.70;44.80
5639;DHT22;2841;44.526;11.360;2023-04-10T13:52:26;19.70;44.30
5639;DHT22;2841;44.526;11.360;2023-04-10T13:54:54;19.50;44.10
5639;DHT22;2841;44.526;11.360;2023-04-10T13:57:21;19.50;44.00
5639;DHT22;2841;44.526;11.360;2023-04-10T13:59:47;19.70;44.00
5639;DHT22;2841;44.526;11.360;2023-04-10T14:02:14;19.90;43.90
5639;DHT22;2841;44.526;11.360;2023-04-10T14:04:41;20.10;43.60
5639;DHT22;2841;44.526;11.360;2023-04-10T14:07:10;20.30;43.50
5639;DHT22;2841;44.526;11.360;2023-04-10T14:09:37;20.40;43.20
5639;DHT22;2841;44.526;11.360;2023-04-10T14:12:05;20.50;43.10
5639;DHT22;2841;44.526;11.360;2023-04-10T14:14:32;20.60;42.80
5639;DHT22;2841;44.526;11.360;2023-04-10T14:16:58;20.60;42.70
5639;DHT22;2841;44.526;11.360;2023-04-10T14:19:26;20.80;42.90
5639;DHT22;2841;44.526;11.360;2023-04-10T14:21:52;20.90;42.70
5639;DHT22;2841;44.526;11.360;2023-04-10T14:24:19;21.00;42.60
5639;DHT22;2841;44.526;11.360;2023-04-10T14:26:46;21.00;42.50
5639;DHT22;2841;44.526;11.360;2023-04-10T14:29:14;21.00;42.90
5639;DHT22;2841;44.526;11.360;2023-04-10T14:31:41;21.00;42.40
5639;DHT22;2841;44.526;11.360;2023-04-10T14:34:08;20.90;42.00
5639;DHT22;2841;44.526;11.360;2023-04-10T14:36:34;20.70;42.00
5639;DHT22;2841;44.526;11.360;2023-04-10T14:39:01;20.80;42.20
5639;DHT22;2841;44.526;11.360;2023-04-10T14:41:28;21.00;42.20
5639;DHT22;2841;44.526;11.360;2023-04-10T14:43:55;21.20;42.00
5639;DHT22;2841;44.526;11.360;2023-04-10T14:46:23;21.20;41.90
5639;DHT22;2841;44.526;11.360;2023-04-10T14:48:50;21.20;41.90
5639;DHT22;2841;44.526;11.360;2023-04-10T14:51:17;21.30;41.80
5639;DHT22;2841;44.526;11.360;2023-04-10T14:53:44;21.50;41.90
5639;DHT22;2841;44.526;11.360;2023-04-10T14:56:11;22.20;41.50
5639;DHT22;2841;44.526;11.360;2023-04-10T14:58:38;22.30;40.90
5639;DHT22;2841;44.526;11.360;2023-04-10T15:01:07;22.40;40.60
5639;DHT22;2841;44.526;11.360;2023-04-10T15:03:35;22.30;40.60
5639;DHT22;2841;44.526;11.360;2023-04-10T15:06:02;22.40;40.70
5639;DHT22;2841;44.526;11.360;2023-04-10T15:08:28;22.50;40.70
5639;DHT22;2841;44.526;11.360;2023-04-10T15:10:55;22.60;40.70
5639;DHT22;2841;44.526;11.360;2023-04-10T15:13:22;22.70;40.70
5639;DHT22;2841;44.526;11.360;2023-04-10T15:15:49;22.90;40.60
5639;DHT22;2841;44.526;11.360;2023-04-10T15:18:15;23.20;40.40
5639;DHT22;2841;44.526;11.360;2023-04-10T15:20:43;23.50;40.10
5639;DHT22;2841;44.526;11.360;2023-04-10T15:23:10;24.00;39.80
5639;DHT22;2841;44.526;11.360;2023-04-10T15:25:37;25.60;39.00
5639;DHT22;2841;44.526;11.360;2023-04-10T15:28:04;28.40;36.80
5639;DHT22;2841;44.526;11.360;2023-04-10T15:30:32;31.30;34.40
5639;DHT22;2841;44.526;11.360;2023-04-10T15:32:58;33.70;31.50
5639;DHT22;2841;44.526;11.360;2023-04-10T15:35:25;35.00;30.30
5639;DHT22;2841;44.526;11.360;2023-04-10T15:37:55;35.90;29.40
5639;DHT22;2841;44.526;11.360;2023-04-10T15:40:22;36.70;29.00
5639;DHT22;2841;44.526;11.360;2023-04-10T15:42:49;37.20;28.70
5639;DHT22;2841;44.526;11.360;2023-04-10T15:45:16;37.10;28.80
5639;DHT22;2841;44.526;11.360;2023-04-10T15:47:44;36.90;28.80
5639;DHT22;2841;44.526;11.360;2023-04-10T15:50:11;37.00;29.00
5639;DHT22;2841;44.526;11.360;2023-04-10T15:52:37;37.50;28.90
5639;DHT22;2841;44.526;11.360;2023-04-10T15:55:06;37.20;28.90
5639;DHT22;2841;44.526;11.360;2023-04-10T15:57:33;37.40;28.90
5639;DHT22;2841;44.526;11.360;2023-04-10T16:00:00;37.60;28.70
5639;DHT22;2841;44.526;11.360;2023-04-10T16:02:28;37.20;28.80